This is the latest recevied weather packets stored in our database for station/object S56IAR-13. If no packets are shown the sender has not sent any weather packets the latest 10 day(s).
| Time | Temp. | Humidity | Pressure | Rain* | Wind** | Luminosity | Snow |
|---|---|---|---|---|---|---|---|
| 1777676236 | 4.44° C | 92% | 973 hPa | 0 mm | - | 0 W/m² | - |
| 1777673104 | 5° C | 91% | 973.2 hPa | 0 mm | - | 0 W/m² | - |
| 1777671005 | 5° C | 90% | 973.3 hPa | 0 mm | - | 0 W/m² | - |
| 1777670704 | 5° C | 90% | 973.1 hPa | 0 mm | - | 0 W/m² | - |
| 1777670405 | 5.56° C | 89% | 973.2 hPa | 0 mm | - | 0 W/m² | - |
| 1777670104 | 5.56° C | 90% | 973.3 hPa | 0 mm | - | 0 W/m² | - |
| 1777668005 | 5.56° C | 88% | 973 hPa | 0 mm | - | 0 W/m² | - |
| 1777667703 | 6.11° C | 88% | 972.9 hPa | 0 mm | - | 0 W/m² | - |
| 1777666803 | 6.11° C | 88% | 972.8 hPa | 0 mm | - | 0 W/m² | - |
| 1777662303 | 7.78° C | 85% | 972.1 hPa | 0 mm | - | 0 W/m² | - |
| 1777659305 | 8.89° C | 83% | 971.4 hPa | 0 mm | - | 1 W/m² | - |
| 1777658105 | 9.44° C | 80% | 971.1 hPa | 0 mm | - | 8 W/m² | - |
| 1777657505 | 10° C | 78% | 971.1 hPa | 0 mm | - | 12 W/m² | - |
| 1777657204 | 10° C | 79% | 971 hPa | 0 mm | - | 14 W/m² | - |
| 1777655405 | 11.67° C | 72% | 970.7 hPa | 0 mm | - | 24 W/m² | - |
| 1777653905 | 12.78° C | 62% | 970.8 hPa | 0 mm | - | 31 W/m² | - |
| 1777652534 | 17.78° C | 38% | 970.9 hPa | 0 mm | - | 134 W/m² | - |
| 1777648803 | 17.78° C | 38% | 971 hPa | 0 mm | - | 312 W/m² | - |
| 1777645505 | 19.44° C | 39% | 971.6 hPa | 0 mm | - | 473 W/m² | - |
| 1777645204 | 18.89° C | 37% | 971.5 hPa | 0 mm | - | 487 W/m² | - |
| 1777643405 | 18.33° C | 38% | 971.6 hPa | 0 mm | - | 560 W/m² | - |
| 1777642805 | 17.78° C | 40% | 971.5 hPa | 0 mm | - | 583 W/m² | - |
| 1777641903 | 17.22° C | 40% | 971.9 hPa | 0 mm | - | 612 W/m² | - |
| 1777639034 | 16.11° C | 41% | 972.2 hPa | 0 mm | - | 706 W/m² | - |
| 1777636503 | 15.56° C | 39% | 972.7 hPa | 0 mm | - | 259 W/m² | - |
* Rain latest hour (hover to see other rain measurements)
** Current wind speed in m/s (hover to see current wind gust speed)